createdAt,value
2018-09-19T00:02:22.315Z,5.07
2018-09-19T00:07:19.726Z,5.23
2018-09-19T00:12:17.163Z,5.40
2018-09-19T00:17:14.566Z,6.30
2018-09-19T00:22:11.974Z,4.50
2018-09-19T00:27:09.386Z,5.00
2018-09-19T00:32:06.912Z,5.80
2018-09-19T00:37:04.311Z,5.30
2018-09-19T00:42:01.741Z,4.73
2018-09-19T00:46:59.142Z,5.60
2018-09-19T00:51:56.634Z,5.43
2018-09-19T00:56:54.002Z,5.33
2018-09-19T01:01:51.620Z,6.00
2018-09-19T01:06:49.016Z,5.90
2018-09-19T01:11:46.455Z,5.83
2018-09-19T01:16:43.845Z,7.00
2018-09-19T01:21:41.226Z,6.77
2018-09-19T01:26:38.615Z,6.37
2018-09-19T01:31:36.070Z,6.50
2018-09-19T01:36:33.477Z,7.30
2018-09-19T01:41:30.946Z,5.67
2018-09-19T01:46:28.307Z,7.23
2018-09-19T01:51:25.695Z,6.33
2018-09-19T01:56:23.075Z,7.83
2018-09-19T02:01:20.452Z,6.20
2018-09-19T02:06:17.859Z,6.87
2018-09-19T02:11:15.279Z,6.60
2018-09-19T02:16:12.674Z,7.57
2018-09-19T02:21:10.072Z,6.30
2018-09-19T02:26:07.457Z,6.87
2018-09-19T02:31:04.850Z,6.87
2018-09-19T02:36:02.238Z,6.50
2018-09-19T02:40:59.652Z,6.87
2018-09-19T02:45:57.041Z,6.80
2018-09-19T02:50:54.452Z,5.87
2018-09-19T02:55:51.856Z,8.50
2018-09-19T03:00:49.244Z,7.80
2018-09-19T03:05:46.620Z,6.60
2018-09-19T03:10:44.047Z,7.10
2018-09-19T03:15:41.471Z,7.57
2018-09-19T03:20:38.888Z,8.17
2018-09-19T03:25:36.379Z,8.90
2018-09-19T03:30:33.786Z,7.20
2018-09-19T03:35:31.653Z,9.53
2018-09-19T03:40:29.049Z,6.93
2018-09-19T03:45:26.459Z,8.10
2018-09-19T03:50:23.849Z,8.13
2018-09-19T03:55:21.232Z,7.20
2018-09-19T04:00:18.649Z,7.53
2018-09-19T04:05:16.050Z,8.90
2018-09-19T04:10:14.560Z,10.17
2018-09-19T04:15:12.031Z,8.30
2018-09-19T04:20:09.416Z,9.33
2018-09-19T04:25:06.891Z,9.40
2018-09-19T04:30:04.429Z,9.07
2018-09-19T04:35:01.858Z,9.30
2018-09-19T04:40:01.001Z,9.73
2018-09-19T04:44:58.467Z,9.20
2018-09-19T04:49:55.833Z,11.00
2018-09-19T04:54:53.239Z,10.47
2018-09-19T04:59:50.932Z,10.50
2018-09-19T05:04:48.347Z,10.20
2018-09-19T05:09:50.404Z,10.20
2018-09-19T05:14:47.791Z,10.80
2018-09-19T05:19:45.179Z,9.70
2018-09-19T05:24:42.605Z,11.30
2018-09-19T05:29:40.003Z,10.20
2018-09-19T05:34:37.547Z,9.40
2018-09-19T05:39:42.676Z,10.40
2018-09-19T05:44:40.122Z,10.10
2018-09-19T05:49:37.603Z,10.73
2018-09-19T05:54:36.029Z,10.13
2018-09-19T05:59:33.466Z,10.57
2018-09-19T06:04:30.841Z,9.27
2018-09-19T06:09:37.956Z,9.17
2018-09-19T06:14:35.729Z,9.97
2018-09-19T06:19:33.143Z,9.00
2018-09-19T06:24:30.536Z,10.50
2018-09-19T06:29:28.049Z,9.07
2018-09-19T06:34:25.451Z,8.87
2018-09-19T06:39:33.632Z,8.77
2018-09-19T06:44:31.154Z,8.90
2018-09-19T06:49:28.592Z,8.77
2018-09-19T06:54:26.019Z,9.40
2018-09-19T06:59:23.507Z,8.70
2018-09-19T07:04:20.932Z,8.30
2018-09-19T07:09:26.883Z,7.13
2018-09-19T07:14:24.373Z,8.57
2018-09-19T07:19:21.857Z,8.00
2018-09-19T07:24:19.281Z,8.10
2018-09-19T07:29:16.676Z,7.40
2018-09-19T07:34:14.074Z,7.60
2018-09-19T07:39:14.846Z,8.57
2018-09-19T07:44:12.267Z,6.73
2018-09-19T07:49:09.702Z,5.70
2018-09-19T07:54:07.159Z,6.20
2018-09-19T07:59:04.572Z,5.73
2018-09-19T08:04:01.995Z,5.90
2018-09-19T08:08:59.409Z,5.90
2018-09-19T08:13:56.841Z,5.27
2018-09-19T08:18:54.302Z,4.70
2018-09-19T08:23:51.716Z,4.67
2018-09-19T08:28:49.468Z,4.30
2018-09-19T08:33:47.045Z,4.40
2018-09-19T08:38:44.475Z,4.67
2018-09-19T08:43:41.915Z,4.73
2018-09-19T08:48:39.466Z,3.73
2018-09-19T08:53:36.883Z,4.73
2018-09-19T08:58:34.307Z,3.30
2018-09-19T09:03:32.555Z,3.00
2018-09-19T09:08:29.955Z,3.53
2018-09-19T09:13:27.428Z,3.57
2018-09-19T09:18:24.804Z,3.40
2018-09-19T09:23:22.249Z,3.33
2018-09-19T09:28:19.619Z,3.30
2018-09-19T09:33:17.016Z,5.03
2018-09-19T09:38:14.415Z,4.17
2018-09-19T09:43:11.868Z,4.00
2018-09-19T09:48:09.300Z,4.40
2018-09-19T09:53:06.764Z,4.77
2018-09-19T09:58:04.120Z,6.00
2018-09-19T10:03:01.520Z,4.97
2018-09-19T10:07:58.915Z,5.30
2018-09-19T10:12:56.614Z,5.30
2018-09-19T10:17:54.003Z,4.70
2018-09-19T10:22:51.431Z,4.40
2018-09-19T10:27:48.815Z,4.27
2018-09-19T10:32:46.216Z,4.40
2018-09-19T10:37:43.629Z,3.90
2018-09-19T10:42:41.055Z,4.20
2018-09-19T10:47:38.472Z,4.53
2018-09-19T10:52:35.858Z,4.30
2018-09-19T10:57:33.286Z,4.03
2018-09-19T11:02:30.703Z,3.33
2018-09-19T11:07:28.115Z,3.20
2018-09-19T11:12:25.578Z,4.20
2018-09-19T11:17:22.988Z,4.00
2018-09-19T11:22:20.405Z,4.20
2018-09-19T11:27:17.823Z,4.23
2018-09-19T11:32:15.220Z,3.60
2018-09-19T11:37:12.632Z,2.23
2018-09-19T11:42:10.096Z,3.47
2018-09-19T11:47:07.524Z,3.47
2018-09-19T11:52:04.973Z,2.90
2018-09-19T11:57:02.359Z,2.37
2018-09-19T12:01:59.881Z,2.90
2018-09-19T12:06:57.277Z,4.83
2018-09-19T12:11:54.739Z,3.43
2018-09-19T12:16:52.152Z,2.50
2018-09-19T12:21:49.815Z,2.40
2018-09-19T12:26:47.248Z,2.60
2018-09-19T12:31:44.691Z,4.17
2018-09-19T12:36:42.139Z,2.50
2018-09-19T12:41:39.911Z,3.03
2018-09-19T12:46:37.415Z,3.00
2018-09-19T12:51:34.919Z,2.37
2018-09-19T12:56:32.431Z,2.63
2018-09-19T13:01:29.894Z,2.80
2018-09-19T13:06:27.333Z,3.03
2018-09-19T13:11:24.804Z,3.47
2018-09-19T13:16:22.298Z,3.00
2018-09-19T13:21:19.755Z,2.53
2018-09-19T13:26:17.194Z,2.83
2018-09-19T13:31:14.601Z,3.10
2018-09-19T13:36:12.038Z,3.07
2018-09-19T13:41:09.676Z,3.63
2018-09-19T13:46:07.519Z,3.47
2018-09-19T13:51:17.951Z,2.60
2018-09-19T13:56:15.360Z,3.40
2018-09-19T14:01:12.954Z,2.83
2018-09-19T14:06:10.367Z,3.50
2018-09-19T14:11:07.839Z,2.40
2018-09-19T14:16:06.155Z,2.90
2018-09-19T14:21:03.587Z,4.07
2018-09-19T14:26:00.999Z,3.50
2018-09-19T14:30:58.411Z,3.37
2018-09-19T14:35:55.924Z,3.13
2018-09-19T14:40:53.303Z,3.10
2018-09-19T14:45:50.709Z,2.20
2018-09-19T14:50:48.106Z,3.63
2018-09-19T14:55:45.519Z,2.90
2018-09-19T15:00:42.929Z,1.67
2018-09-19T15:05:40.344Z,2.80
2018-09-19T15:10:37.791Z,3.10
2018-09-19T15:15:35.291Z,2.70
2018-09-19T15:20:32.707Z,3.00
2018-09-19T15:25:30.210Z,3.13
2018-09-19T15:30:27.608Z,3.20
2018-09-19T15:35:25.026Z,2.73
2018-09-19T15:40:23.516Z,3.17
2018-09-19T15:45:20.945Z,2.87
2018-09-19T15:50:18.372Z,3.60
2018-09-19T15:55:15.794Z,3.27
2018-09-19T16:00:13.326Z,3.03
2018-09-19T16:05:12.231Z,2.50
2018-09-19T16:10:10.756Z,2.63
2018-09-19T16:15:08.156Z,2.80
2018-09-19T16:20:05.594Z,3.97
2018-09-19T16:25:03.068Z,3.30
2018-09-19T16:30:00.467Z,2.90
2018-09-19T16:34:57.867Z,2.90
2018-09-19T16:39:56.395Z,2.43
2018-09-19T16:44:53.809Z,2.97
2018-09-19T16:49:51.283Z,2.70
2018-09-19T16:54:48.710Z,2.90
2018-09-19T16:59:51.620Z,3.40
2018-09-19T17:04:51.803Z,3.60
2018-09-19T17:09:56.000Z,3.10
2018-09-19T17:14:53.397Z,3.20
2018-09-19T17:19:52.131Z,3.10
2018-09-19T17:24:52.760Z,4.07
2018-09-19T17:29:52.385Z,3.77
2018-09-19T17:34:58.508Z,3.23
2018-09-19T17:40:04.333Z,3.30
2018-09-19T17:45:06.092Z,3.03
2018-09-19T17:50:10.723Z,3.80
2018-09-19T17:55:10.992Z,4.00
2018-09-19T18:00:10.703Z,3.40
2018-09-19T18:05:10.357Z,4.07
2018-09-19T18:10:10.505Z,4.80
2018-09-19T18:15:09.809Z,4.10
2018-09-19T18:20:12.362Z,4.23
2018-09-19T18:25:11.013Z,3.83
2018-09-19T18:30:10.407Z,3.93
2018-09-19T18:35:11.509Z,3.50
2018-09-19T18:40:14.563Z,4.10
2018-09-19T18:45:13.217Z,3.50
2018-09-19T18:50:11.870Z,4.27
2018-09-19T18:55:11.231Z,4.80
2018-09-19T19:00:11.558Z,4.33
2018-09-19T19:05:09.406Z,4.47
2018-09-19T19:10:15.936Z,3.73
2018-09-19T19:15:17.556Z,4.97
2018-09-19T19:20:22.306Z,3.77
2018-09-19T19:25:28.418Z,3.90
2018-09-19T19:30:35.838Z,3.83
2018-09-19T19:35:40.962Z,3.43
2018-09-19T19:40:44.383Z,4.07
2018-09-19T19:45:45.917Z,4.40
2018-09-19T19:50:48.472Z,4.23
2018-09-19T19:55:54.794Z,4.10
2018-09-19T20:00:56.391Z,3.90
2018-09-19T20:06:03.701Z,4.43
2018-09-19T20:11:06.620Z,4.50
2018-09-19T20:16:08.006Z,3.60
2018-09-19T20:21:07.619Z,3.90
2018-09-19T20:26:09.090Z,4.23
2018-09-19T20:31:11.379Z,4.50
2018-09-19T20:36:14.005Z,4.20
2018-09-19T20:41:17.584Z,5.00
2018-09-19T20:46:18.415Z,4.50
2018-09-19T20:51:21.161Z,5.10
2018-09-19T20:56:21.277Z,5.10
2018-09-19T21:01:22.264Z,4.10
2018-09-19T21:06:25.686Z,4.80
2018-09-19T21:11:23.228Z,3.97
2018-09-19T21:16:25.871Z,4.50
2018-09-19T21:21:28.444Z,4.93
2018-09-19T21:26:34.372Z,4.37
2018-09-19T21:31:39.238Z,4.70
2018-09-19T21:36:41.341Z,4.17
2018-09-19T21:41:42.353Z,4.40
2018-09-19T21:46:42.515Z,3.90
2018-09-19T21:51:42.911Z,4.43
2018-09-19T21:56:41.861Z,5.10
2018-09-19T22:01:40.683Z,4.93
2018-09-19T22:06:39.360Z,4.30
2018-09-19T22:11:36.990Z,5.17
2018-09-19T22:16:34.402Z,5.43
2018-09-19T22:21:31.859Z,5.30
2018-09-19T22:26:29.235Z,4.50
2018-09-19T22:31:26.871Z,5.10
2018-09-19T22:36:24.260Z,5.40
2018-09-19T22:41:21.877Z,4.70
2018-09-19T22:46:19.338Z,6.00
2018-09-19T22:51:16.768Z,4.30
2018-09-19T22:56:14.479Z,5.03
2018-09-19T23:01:11.863Z,5.27
2018-09-19T23:06:09.247Z,5.33
2018-09-19T23:11:06.703Z,5.57
2018-09-19T23:16:04.111Z,5.07
2018-09-19T23:21:01.491Z,5.87
2018-09-19T23:25:58.908Z,5.83
2018-09-19T23:30:56.374Z,6.53
2018-09-19T23:35:53.775Z,6.27
2018-09-19T23:40:51.195Z,5.10
2018-09-19T23:45:48.677Z,5.70
2018-09-19T23:50:46.071Z,5.17
2018-09-19T23:55:43.453Z,5.37
